Time;durP1;ratioP1;P1;durP2;ratioP2;P2;SDS_P1;SDS_P2;PMS_P1;PMS_P2;Temp;Humidity;BMP_temperature;BMP_pressure;BME280_temperature;BME280_humidity;BME280_pressure;Samples;Min_cycle;Max_cycle;Signal;HPM_P1;HPM_P2
2023/09/14 00:00:51;;;;;;;;;;;;;;;;;;5081280;28;19931;-62
2023/09/14 00:03:17;;;;;;;;;;;;;;;;;;5083289;28;19912;-61
2023/09/14 00:05:43;;;;;;;;;;;;;;;;;;5078028;28;20376;-62
2023/09/14 00:08:09;;;;;;;;;;;;;;;;;;5087146;28;19912;-62
2023/09/14 00:10:35;;;;;;;;;;;;;;;;;;5089790;28;19960;-61
2023/09/14 00:13:01;;;;;;;;;;;;;;;;;;5073118;28;20311;-62
2023/09/14 00:15:27;;;;;;;;;;;;;;;;;;5079842;28;19916;-61
2023/09/14 00:17:53;;;;;;;;;;;;;;;;;;5079822;28;19912;-61
2023/09/14 00:20:20;;;;;;;;;;;;;;;;;;5090919;28;19916;-58
2023/09/14 00:22:46;;;;;;;;;;;;;;;;;;5084235;28;20018;-57
2023/09/14 00:25:12;;;;;;;;;;;;;;;;;;5085118;28;19952;-57
2023/09/14 00:27:38;;;;;;;;;;;;;;;;;;5073131;28;19997;-58
2023/09/14 00:30:04;;;;;;;;;;;;;;;;;;5082963;28;19944;-57
2023/09/14 00:32:30;;;;;;;;;;;;;;;;;;5092354;28;19977;-59
2023/09/14 00:34:56;;;;;;;;;;;;;;;;;;5085166;28;19913;-58
2023/09/14 00:37:22;;;;;;;;;;;;;;;;;;5080405;28;19916;-58
2023/09/14 00:39:48;;;;;;;;;;;;;;;;;;5079503;28;19916;-57
2023/09/14 00:42:13;;;;;;;;;;;;;;;;;;5085875;28;20330;-59
2023/09/14 00:44:40;;;;;;;;;;;;;;;;;;5084744;28;19951;-60
2023/09/14 00:47:06;;;;;;;;;;;;;;;;;;5075779;28;20028;-58
2023/09/14 00:49:32;;;;;;;;;;;;;;;;;;5084165;28;20457;-57
2023/09/14 00:51:57;;;;;;;;;;;;;;;;;;5084249;28;19919;-59
2023/09/14 00:54:23;;;;;;;;;;;;;;;;;;5079807;28;19962;-57
2023/09/14 00:56:49;;;;;;;;;;;;;;;;;;5087011;28;19943;-57
2023/09/14 00:59:15;;;;;;;;;;;;;;;;;;5078455;28;19912;-58
2023/09/14 01:01:41;;;;;;;;;;;;;;;;;;5075206;28;19930;-57
2023/09/14 01:04:07;;;;;;;;;;;;;;;;;;5084424;28;19916;-57
2023/09/14 01:06:33;;;;;;;;;;;;;;;;;;5075571;28;20291;-58
2023/09/14 01:08:59;;;;;;;;;;;;;;;;;;5076575;28;19920;-58
2023/09/14 01:11:25;;;;;;;;;;;;;;;;;;5077143;28;20291;-57
2023/09/14 01:13:51;;;;;;;;;;;;;;;;;;5077890;28;20058;-56
2023/09/14 01:16:16;;;;;;;;;;;;;;;;;;5075373;28;19944;-57
2023/09/14 01:18:42;;;;;;;;;;;;;;;;;;5075679;28;19927;-58
2023/09/14 01:21:08;;;;;;;;;;;;;;;;;;5078587;28;19952;-58
2023/09/14 01:23:34;;;;;;;;;;;;;;;;;;5086774;28;19955;-58
2023/09/14 01:26:01;;;;;;;;;;;;;;;;;;5078382;28;19974;-57
2023/09/14 01:28:28;;;;;;;;;;;;;;;;;;5092430;28;19916;-57
2023/09/14 01:30:54;;;;;;;;;;;;;;;;;;5080200;28;20406;-57
2023/09/14 01:33:21;;;;;;;;;;;;;;;;;;5077121;28;19959;-57
2023/09/14 01:35:46;;;;;;;;;;;;;;;;;;5074925;28;19913;-57
2023/09/14 01:38:12;;;;;;;;;;;;;;;;;;5088929;28;19955;-58
2023/09/14 01:40:38;;;;;;;;;;;;;;;;;;5084533;28;19963;-57
2023/09/14 01:43:04;;;;;;;;;;;;;;;;;;5089098;28;19999;-57
2023/09/14 01:45:30;;;;;;;;;;;;;;;;;;5085560;28;19919;-58
2023/09/14 01:47:56;;;;;;;;;;;;;;;;;;5090003;28;19916;-58
2023/09/14 01:50:22;;;;;;;;;;;;;;;;;;5084661;28;19916;-56
2023/09/14 01:52:49;;;;;;;;;;;;;;;;;;5087450;28;19934;-58
2023/09/14 01:55:16;;;;;;;;;;;;;;;;;;5091908;28;19923;-57
2023/09/14 01:57:42;;;;;;;;;;;;;;;;;;5087161;28;19916;-58
2023/09/14 02:00:08;;;;;;;;;;;;;;;;;;5082277;28;19923;-57
2023/09/14 02:02:34;;;;;;;;;;;;;;;;;;5081057;28;20003;-57
2023/09/14 02:05:00;;;;;;;;;;;;;;;;;;5079799;28;19919;-57
2023/09/14 02:07:26;;;;;;;;;;;;;;;;;;5083957;28;19925;-57
2023/09/14 02:09:52;;;;;;;;;;;;;;;;;;5079484;28;20276;-57
2023/09/14 02:12:18;;;;;;;;;;;;;;;;;;5076283;28;19971;-59
2023/09/14 02:14:44;;;;;;;;;;;;;;;;;;5075604;28;19913;-56
2023/09/14 02:17:10;;;;;;;;;;;;;;;;;;5075653;28;19920;-58
2023/09/14 02:19:35;;;;;;;;;;;;;;;;;;5075146;28;20385;-57
2023/09/14 02:22:01;;;;;;;;;;;;;;;;;;5076365;28;20015;-58
2023/09/14 02:24:27;;;;;;;;;;;;;;;;;;5076129;28;19916;-58
2023/09/14 02:26:54;;;;;;;;;;;;;;;;;;5092944;28;19913;-57
2023/09/14 02:29:20;;;;;;;;;;;;;;;;;;5084483;28;19957;-58
2023/09/14 02:31:46;;;;;;;;;;;;;;;;;;5095467;28;20006;-57
2023/09/14 02:34:12;;;;;;;;;;;;;;;;;;5080350;28;20562;-58
2023/09/14 02:36:37;;;;;;;;;;;;;;;;;;5078408;28;19963;-58
2023/09/14 02:39:03;;;;;;;;;;;;;;;;;;5085207;28;20703;-56
2023/09/14 02:41:29;;;;;;;;;;;;;;;;;;5082570;28;19957;-59
2023/09/14 02:43:55;;;;;;;;;;;;;;;;;;5083182;28;19908;-60
2023/09/14 02:46:21;;;;;;;;;;;;;;;;;;5076461;28;19993;-59
2023/09/14 02:48:47;;;;;;;;;;;;;;;;;;5089432;28;19912;-60
2023/09/14 02:51:13;;;;;;;;;;;;;;;;;;5082692;28;19975;-60
2023/09/14 02:53:39;;;;;;;;;;;;;;;;;;5072490;28;20384;-60
2023/09/14 02:56:05;;;;;;;;;;;;;;;;;;5088357;28;19912;-59
2023/09/14 02:58:30;;;;;;;;;;;;;;;;;;5074668;28;19987;-60
2023/09/14 03:00:56;;;;;;;;;;;;;;;;;;5080457;28;20346;-60
2023/09/14 03:03:22;;;;;;;;;;;;;;;;;;5088637;28;19923;-60
2023/09/14 03:05:49;;;;;;;;;;;;;;;;;;5074679;28;19913;-60
2023/09/14 03:08:15;;;;;;;;;;;;;;;;;;5074173;28;19920;-60
2023/09/14 03:10:42;;;;;;;;;;;;;;;;;;5078849;28;19948;-60
2023/09/14 03:13:08;;;;;;;;;;;;;;;;;;5075479;28;19949;-59
2023/09/14 03:15:34;;;;;;;;;;;;;;;;;;5085800;28;20042;-59
2023/09/14 03:18:00;;;;;;;;;;;;;;;;;;5087601;28;20454;-60
2023/09/14 03:20:26;;;;;;;;;;;;;;;;;;5082680;28;20051;-59
2023/09/14 03:22:52;;;;;;;;;;;;;;;;;;5084227;28;20000;-59
2023/09/14 03:25:18;;;;;;;;;;;;;;;;;;5082427;28;19943;-60
2023/09/14 03:27:44;;;;;;;;;;;;;;;;;;5080129;28;20299;-60
2023/09/14 03:30:10;;;;;;;;;;;;;;;;;;5083418;28;19962;-60
2023/09/14 03:32:36;;;;;;;;;;;;;;;;;;5074550;28;19956;-60
2023/09/14 03:35:02;;;;;;;;;;;;;;;;;;5082342;28;19939;-60
2023/09/14 03:37:28;;;;;;;;;;;;;;;;;;5084271;28;19924;-60
2023/09/14 03:39:54;;;;;;;;;;;;;;;;;;5081778;28;19923;-60
2023/09/14 03:42:20;;;;;;;;;;;;;;;;;;5080422;28;19956;-60
2023/09/14 03:44:46;;;;;;;;;;;;;;;;;;5081244;28;19935;-60
2023/09/14 03:47:12;;;;;;;;;;;;;;;;;;5085919;28;19951;-60
2023/09/14 03:49:38;;;;;;;;;;;;;;;;;;5083208;28;20342;-62
2023/09/14 03:52:04;;;;;;;;;;;;;;;;;;5077601;28;20392;-60
2023/09/14 03:54:30;;;;;;;;;;;;;;;;;;5075464;28;19922;-60
2023/09/14 03:56:56;;;;;;;;;;;;;;;;;;5088318;28;19954;-60
2023/09/14 03:59:22;;;;;;;;;;;;;;;;;;5081687;28;19940;-59
2023/09/14 04:01:48;;;;;;;;;;;;;;;;;;5080548;28;20372;-60
2023/09/14 04:04:13;;;;;;;;;;;;;;;;;;5073588;28;20339;-60
2023/09/14 04:06:39;;;;;;;;;;;;;;;;;;5079736;28;20394;-60
2023/09/14 04:09:05;;;;;;;;;;;;;;;;;;5075758;28;19912;-60
2023/09/14 04:11:31;;;;;;;;;;;;;;;;;;5081785;28;20602;-59
2023/09/14 04:13:58;;;;;;;;;;;;;;;;;;5078568;28;19920;-60
2023/09/14 04:16:28;;;;;;;;;;;;;;;;;;5082751;28;19916;-59
2023/09/14 04:18:54;;;;;;;;;;;;;;;;;;5075157;28;19935;-59
2023/09/14 04:21:19;;;;;;;;;;;;;;;;;;5081376;28;20322;-60
2023/09/14 04:23:45;;;;;;;;;;;;;;;;;;5075876;28;20000;-59
2023/09/14 04:26:11;;;;;;;;;;;;;;;;;;5087520;28;19912;-60
2023/09/14 04:28:37;;;;;;;;;;;;;;;;;;5079327;28;19920;-60
2023/09/14 04:31:08;;;;;;;;;;;;;;;;;;5074468;28;19912;-60
2023/09/14 04:33:35;;;;;;;;;;;;;;;;;;5076201;28;19924;-60
2023/09/14 04:36:01;;;;;;;;;;;;;;;;;;5079723;28;19912;-60
2023/09/14 04:38:27;;;;;;;;;;;;;;;;;;5082497;28;19916;-60
2023/09/14 04:40:53;;;;;;;;;;;;;;;;;;5069665;28;19920;-59
2023/09/14 04:43:20;;;;;;;;;;;;;;;;;;5080285;28;20379;-59
2023/09/14 04:45:46;;;;;;;;;;;;;;;;;;5074755;28;19921;-60
2023/09/14 04:48:12;;;;;;;;;;;;;;;;;;5078114;28;19962;-59
2023/09/14 04:50:38;;;;;;;;;;;;;;;;;;5077919;28;19978;-60
2023/09/14 04:53:04;;;;;;;;;;;;;;;;;;5068374;28;20019;-60
2023/09/14 04:55:30;;;;;;;;;;;;;;;;;;5079961;28;19916;-60
2023/09/14 04:57:56;;;;;;;;;;;;;;;;;;5078643;28;20406;-59
2023/09/14 05:00:21;;;;;;;;;;;;;;;;;;5075391;28;19912;-62
2023/09/14 05:02:47;;;;;;;;;;;;;;;;;;5075165;28;20272;-59
2023/09/14 05:05:13;;;;;;;;;;;;;;;;;;5079676;28;19967;-61
2023/09/14 05:07:41;;;;;;;;;;;;;;;;;;5075190;28;19948;-62
2023/09/14 05:10:07;;;;;;;;;;;;;;;;;;5079855;28;19920;-61
2023/09/14 05:12:32;;;;;;;;;;;;;;;;;;5082619;28;20001;-57
2023/09/14 05:14:58;;;;;;;;;;;;;;;;;;5074590;28;19959;-60
2023/09/14 05:17:24;;;;;;;;;;;;;;;;;;5076077;28;19954;-63
2023/09/14 05:19:50;;;;;;;;;;;;;;;;;;5076049;28;20369;-60
2023/09/14 05:22:16;;;;;;;;;;;;;;;;;;5070719;28;19999;-60
2023/09/14 05:24:42;;;;;;;;;;;;;;;;;;5075668;28;20354;-60
2023/09/14 05:27:08;;;;;;;;;;;;;;;;;;5076413;28;19956;-61
2023/09/14 05:29:34;;;;;;;;;;;;;;;;;;5076364;28;20001;-60
2023/09/14 05:32:00;;;;;;;;;;;;;;;;;;5080868;28;19978;-61
2023/09/14 05:34:26;;;;;;;;;;;;;;;;;;5070260;28;19942;-61
2023/09/14 05:36:52;;;;;;;;;;;;;;;;;;5075533;28;20011;-61
2023/09/14 05:39:18;;;;;;;;;;;;;;;;;;5078012;28;20311;-61
2023/09/14 05:41:44;;;;;;;;;;;;;;;;;;5075606;28;20489;-60
2023/09/14 05:44:10;;;;;;;;;;;;;;;;;;5079223;28;20010;-61
2023/09/14 05:46:36;;;;;;;;;;;;;;;;;;5085999;28;19951;-61
2023/09/14 05:49:02;;;;;;;;;;;;;;;;;;5078844;28;20368;-61
2023/09/14 05:51:28;;;;;;;;;;;;;;;;;;5085706;28;19915;-61
2023/09/14 05:53:54;;;;;;;;;;;;;;;;;;5075855;28;20023;-61
2023/09/14 05:56:20;;;;;;;;;;;;;;;;;;5082894;28;19999;-60
2023/09/14 05:58:46;;;;;;;;;;;;;;;;;;5081229;28;19912;-61
2023/09/14 06:01:14;;;;;;;;;;;;;;;;;;5084096;28;19946;-61
2023/09/14 06:03:40;;;;;;;;;;;;;;;;;;5078334;28;19918;-61
2023/09/14 06:06:05;;;;;;;;;;;;;;;;;;5084554;28;19999;-61
2023/09/14 06:08:32;;;;;;;;;;;;;;;;;;5074366;28;19952;-61
2023/09/14 06:10:57;;;;;;;;;;;;;;;;;;5076397;28;19961;-60
2023/09/14 06:13:23;;;;;;;;;;;;;;;;;;5089074;28;20549;-60
2023/09/14 06:15:49;;;;;;;;;;;;;;;;;;5080652;28;19999;-60
2023/09/14 06:18:15;;;;;;;;;;;;;;;;;;5083274;28;19915;-59
2023/09/14 06:20:41;;;;;;;;;;;;;;;;;;5076922;28;19923;-61
2023/09/14 06:23:07;;;;;;;;;;;;;;;;;;5086852;28;19951;-61
2023/09/14 06:25:33;;;;;;;;;;;;;;;;;;5076906;28;20037;-61
2023/09/14 06:27:59;;;;;;;;;;;;;;;;;;5077559;28;20364;-60
2023/09/14 06:30:25;;;;;;;;;;;;;;;;;;5076600;28;19927;-61
2023/09/14 06:32:51;;;;;;;;;;;;;;;;;;5077362;28;19916;-61
2023/09/14 06:35:17;;;;;;;;;;;;;;;;;;5081637;28;19965;-60
2023/09/14 06:37:43;;;;;;;;;;;;;;;;;;5079830;28;19916;-61
2023/09/14 06:40:09;;;;;;;;;;;;;;;;;;5084322;28;19974;-60
2023/09/14 06:42:36;;;;;;;;;;;;;;;;;;5085754;28;20291;-60
2023/09/14 06:45:01;;;;;;;;;;;;;;;;;;5083606;28;19916;-61
2023/09/14 06:47:27;;;;;;;;;;;;;;;;;;5080667;28;19909;-60
2023/09/14 06:49:53;;;;;;;;;;;;;;;;;;5084729;28;19913;-61
2023/09/14 06:52:19;;;;;;;;;;;;;;;;;;5080981;28;19917;-60
2023/09/14 06:54:45;;;;;;;;;;;;;;;;;;5083146;28;19934;-60
2023/09/14 06:57:11;;;;;;;;;;;;;;;;;;5080331;28;19909;-61
2023/09/14 06:59:37;;;;;;;;;;;;;;;;;;5087867;28;19978;-61
2023/09/14 07:02:03;;;;;;;;;;;;;;;;;;5080470;28;19916;-61
2023/09/14 07:04:29;;;;;;;;;;;;;;;;;;5084894;28;20267;-60
2023/09/14 07:06:55;;;;;;;;;;;;;;;;;;5087551;28;19919;-60
2023/09/14 07:09:21;;;;;;;;;;;;;;;;;;5074918;28;19912;-61
2023/09/14 07:11:46;;;;;;;;;;;;;;;;;;5078638;28;19966;-61
2023/09/14 07:14:12;;;;;;;;;;;;;;;;;;5082087;28;19912;-61
2023/09/14 07:16:38;;;;;;;;;;;;;;;;;;5078500;28;20325;-61
2023/09/14 07:19:04;;;;;;;;;;;;;;;;;;5091960;28;19943;-60
2023/09/14 07:21:34;;;;;;;;;;;;;;;;;;5091665;28;19916;-57
2023/09/14 07:24:00;;;;;;;;;;;;;;;;;;5082261;28;19980;-58
2023/09/14 07:26:26;;;;;;;;;;;;;;;;;;5076991;28;19995;-58
2023/09/14 07:28:52;;;;;;;;;;;;;;;;;;5082321;28;19918;-57
2023/09/14 07:31:18;;;;;;;;;;;;;;;;;;5089148;28;19912;-59
2023/09/14 07:33:44;;;;;;;;;;;;;;;;;;5080857;28;20008;-58
2023/09/14 07:36:10;;;;;;;;;;;;;;;;;;5087743;28;20042;-58
2023/09/14 07:38:37;;;;;;;;;;;;;;;;;;5083221;28;19912;-58
2023/09/14 07:41:03;;;;;;;;;;;;;;;;;;5084981;28;19913;-58
2023/09/14 07:43:29;;;;;;;;;;;;;;;;;;5083297;28;19908;-58
2023/09/14 07:45:55;;;;;;;;;;;;;;;;;;5079447;28;19912;-59
2023/09/14 07:48:21;;;;;;;;;;;;;;;;;;5078806;28;19919;-57
2023/09/14 07:50:47;;;;;;;;;;;;;;;;;;5079241;28;19909;-59
2023/09/14 07:53:13;;;;;;;;;;;;;;;;;;5088860;28;19916;-58
2023/09/14 07:55:39;;;;;;;;;;;;;;;;;;5081038;28;19934;-58
2023/09/14 07:58:08;;;;;;;;;;;;;;;;;;5075489;28;20356;-58
2023/09/14 08:00:34;;;;;;;;;;;;;;;;;;5077811;28;19924;-58
2023/09/14 08:03:00;;;;;;;;;;;;;;;;;;5082175;28;19967;-57
2023/09/14 08:05:26;;;;;;;;;;;;;;;;;;5085573;28;19912;-59
2023/09/14 08:07:52;;;;;;;;;;;;;;;;;;5085820;28;19967;-58
2023/09/14 08:10:18;;;;;;;;;;;;;;;;;;5078504;28;20348;-57
2023/09/14 08:12:43;;;;;;;;;;;;;;;;;;5092598;28;19922;-58
2023/09/14 08:15:09;;;;;;;;;;;;;;;;;;5079168;28;20280;-58
2023/09/14 08:17:35;;;;;;;;;;;;;;;;;;5081926;28;20327;-58
2023/09/14 08:20:02;;;;;;;;;;;;;;;;;;5075874;28;19909;-57
2023/09/14 08:22:28;;;;;;;;;;;;;;;;;;5088892;28;20291;-61
2023/09/14 08:24:54;;;;;;;;;;;;;;;;;;5079798;28;19960;-56
2023/09/14 08:27:20;;;;;;;;;;;;;;;;;;5083571;28;20272;-58
2023/09/14 08:29:46;;;;;;;;;;;;;;;;;;5081863;28;19965;-60
2023/09/14 08:32:12;;;;;;;;;;;;;;;;;;5081660;28;19963;-62
2023/09/14 08:34:38;;;;;;;;;;;;;;;;;;5074811;28;19931;-62
2023/09/14 08:37:04;;;;;;;;;;;;;;;;;;5081204;28;19912;-61
2023/09/14 08:39:30;;;;;;;;;;;;;;;;;;5085602;28;19912;-62
2023/09/14 08:41:56;;;;;;;;;;;;;;;;;;5082436;28;20402;-58
2023/09/14 08:44:22;;;;;;;;;;;;;;;;;;5084040;28;19956;-63
2023/09/14 08:46:48;;;;;;;;;;;;;;;;;;5076038;28;20376;-63
2023/09/14 08:49:13;;;;;;;;;;;;;;;;;;5085892;28;19908;-61
2023/09/14 08:51:39;;;;;;;;;;;;;;;;;;5077888;28;19912;-62
2023/09/14 08:54:05;;;;;;;;;;;;;;;;;;5073316;28;20431;-62
2023/09/14 08:56:31;;;;;;;;;;;;;;;;;;5077866;28;19979;-61
2023/09/14 08:58:57;;;;;;;;;;;;;;;;;;5085420;28;19918;-62
2023/09/14 09:01:24;;;;;;;;;;;;;;;;;;5071231;28;19956;-62
2023/09/14 09:03:50;;;;;;;;;;;;;;;;;;5071476;28;19924;-62
2023/09/14 09:06:17;;;;;;;;;;;;;;;;;;5069714;28;20310;-59
2023/09/14 09:08:43;;;;;;;;;;;;;;;;;;5070341;28;20338;-62
2023/09/14 09:11:09;;;;;;;;;;;;;;;;;;5071296;28;19936;-63
2023/09/14 09:13:35;;;;;;;;;;;;;;;;;;5081156;28;19963;-62
2023/09/14 09:16:01;;;;;;;;;;;;;;;;;;5076676;28;19908;-63
2023/09/14 09:18:27;;;;;;;;;;;;;;;;;;5080008;28;19963;-61
2023/09/14 09:20:53;;;;;;;;;;;;;;;;;;5067487;28;20015;-62
2023/09/14 09:23:19;;;;;;;;;;;;;;;;;;5080148;28;19969;-63
2023/09/14 09:25:45;;;;;;;;;;;;;;;;;;5085370;28;19993;-63
2023/09/14 09:28:11;;;;;;;;;;;;;;;;;;5076553;28;20386;-63
2023/09/14 09:30:37;;;;;;;;;;;;;;;;;;5084863;28;19908;-62
2023/09/14 09:33:03;;;;;;;;;;;;;;;;;;5077428;28;20072;-60
2023/09/14 09:35:29;;;;;;;;;;;;;;;;;;5086027;28;19912;-62
2023/09/14 09:37:55;;;;;;;;;;;;;;;;;;5083564;28;19939;-63
2023/09/14 09:40:21;;;;;;;;;;;;;;;;;;5077610;28;19908;-60
2023/09/14 09:42:47;;;;;;;;;;;;;;;;;;5084377;28;19912;-61
2023/09/14 09:45:13;;;;;;;;;;;;;;;;;;5082491;28;20350;-60
2023/09/14 09:47:39;;;;;;;;;;;;;;;;;;5081378;28;19962;-61
2023/09/14 09:50:05;;;;;;;;;;;;;;;;;;5080545;28;20395;-61
2023/09/14 09:52:31;;;;;;;;;;;;;;;;;;5084307;28;20010;-60
2023/09/14 09:54:57;;;;;;;;;;;;;;;;;;5080037;28;20330;-60
2023/09/14 09:57:23;;;;;;;;;;;;;;;;;;5075148;28;19965;-60
2023/09/14 09:59:49;;;;;;;;;;;;;;;;;;5080144;28;19912;-60
2023/09/14 10:02:15;;;;;;;;;;;;;;;;;;5075070;28;19913;-60
2023/09/14 10:04:41;;;;;;;;;;;;;;;;;;5084735;28;19958;-61
2023/09/14 10:07:09;;;;;;;;;;;;;;;;;;5074514;28;19921;-60
2023/09/14 10:09:35;;;;;;;;;;;;;;;;;;5079126;28;19938;-60
2023/09/14 10:12:01;;;;;;;;;;;;;;;;;;5083542;28;19912;-61
2023/09/14 10:14:26;;;;;;;;;;;;;;;;;;5083127;28;19912;-61
2023/09/14 10:16:52;;;;;;;;;;;;;;;;;;5078372;28;19927;-61
2023/09/14 10:19:18;;;;;;;;;;;;;;;;;;5089981;28;20370;-60
2023/09/14 10:21:44;;;;;;;;;;;;;;;;;;5073785;28;20042;-60
2023/09/14 10:24:10;;;;;;;;;;;;;;;;;;5081532;28;19912;-60
2023/09/14 10:26:36;;;;;;;;;;;;;;;;;;5094177;28;19908;-60
2023/09/14 10:29:02;;;;;;;;;;;;;;;;;;5084021;28;19977;-60
2023/09/14 10:31:28;;;;;;;;;;;;;;;;;;5082729;28;19916;-61
2023/09/14 10:33:59;;;;;;;;;;;;;;;;;;5080707;28;19958;-61
2023/09/14 10:36:25;;;;;;;;;;;;;;;;;;5088531;28;19919;-61
2023/09/14 10:38:51;;;;;;;;;;;;;;;;;;5080652;28;20296;-60
2023/09/14 10:41:17;;;;;;;;;;;;;;;;;;5082488;28;19916;-61
2023/09/14 10:43:43;;;;;;;;;;;;;;;;;;5080594;28;19923;-61
2023/09/14 10:46:09;;;;;;;;;;;;;;;;;;5080644;28;19956;-60
2023/09/14 10:48:35;;;;;;;;;;;;;;;;;;5089627;28;19913;-60
2023/09/14 10:51:01;;;;;;;;;;;;;;;;;;5086425;28;20325;-61
2023/09/14 10:53:27;;;;;;;;;;;;;;;;;;5083434;28;20371;-61
2023/09/14 10:55:53;;;;;;;;;;;;;;;;;;5076010;28;19960;-60
2023/09/14 10:58:19;;;;;;;;;;;;;;;;;;5087633;28;19947;-61
2023/09/14 11:00:46;;;;;;;;;;;;;;;;;;5082556;28;19908;-61
2023/09/14 11:03:13;;;;;;;;;;;;;;;;;;5087867;28;20011;-61
2023/09/14 11:05:40;;;;;;;;;;;;;;;;;;5088709;28;20273;-61
2023/09/14 11:08:06;;;;;;;;;;;;;;;;;;5083699;28;20304;-61
2023/09/14 11:10:34;;;;;;;;;;;;;;;;;;5080310;28;19967;-61
2023/09/14 11:13:00;;;;;;;;;;;;;;;;;;5086082;28;19921;-61
2023/09/14 11:15:26;;;;;;;;;;;;;;;;;;5073630;28;19916;-60
2023/09/14 11:17:52;;;;;;;;;;;;;;;;;;5086395;28;20030;-61
2023/09/14 11:20:17;;;;;;;;;;;;;;;;;;5078976;28;20368;-60
2023/09/14 11:22:43;;;;;;;;;;;;;;;;;;5084047;28;20409;-61
2023/09/14 11:25:10;;;;;;;;;;;;;;;;;;5083658;28;19912;-61
2023/09/14 11:27:35;;;;;;;;;;;;;;;;;;5076588;28;19916;-61
2023/09/14 11:30:01;;;;;;;;;;;;;;;;;;5081059;28;19998;-60
2023/09/14 11:32:27;;;;;;;;;;;;;;;;;;5082061;28;19924;-61
2023/09/14 11:34:53;;;;;;;;;;;;;;;;;;5086475;28;20334;-60
2023/09/14 11:37:19;;;;;;;;;;;;;;;;;;5087022;28;20383;-62
2023/09/14 11:39:45;;;;;;;;;;;;;;;;;;5079294;28;20004;-61
2023/09/14 11:42:11;;;;;;;;;;;;;;;;;;5076878;28;19955;-62
2023/09/14 11:44:37;;;;;;;;;;;;;;;;;;5083840;28;19913;-61
2023/09/14 11:47:03;;;;;;;;;;;;;;;;;;5085066;28;20437;-62
2023/09/14 11:49:29;;;;;;;;;;;;;;;;;;5083362;28;19916;-62
2023/09/14 11:51:55;;;;;;;;;;;;;;;;;;5077222;28;20305;-62
2023/09/14 11:54:21;;;;;;;;;;;;;;;;;;5085384;28;19927;-60
2023/09/14 11:56:48;;;;;;;;;;;;;;;;;;5075398;28;19909;-62
2023/09/14 11:59:14;;;;;;;;;;;;;;;;;;5089729;28;19908;-62
2023/09/14 12:01:40;;;;;;;;;;;;;;;;;;5081178;28;19992;-63
2023/09/14 12:04:06;;;;;;;;;;;;;;;;;;5074629;28;19948;-61
2023/09/14 12:06:32;;;;;;;;;;;;;;;;;;5086041;28;19986;-61
2023/09/14 12:08:58;;;;;;;;;;;;;;;;;;5078088;28;19960;-64
2023/09/14 12:11:24;;;;;;;;;;;;;;;;;;5075980;28;19920;-63
2023/09/14 12:13:50;;;;;;;;;;;;;;;;;;5079262;28;19959;-63
2023/09/14 12:16:16;;;;;;;;;;;;;;;;;;5071250;28;19923;-63
2023/09/14 12:18:42;;;;;;;;;;;;;;;;;;5082286;28;19920;-63
2023/09/14 12:21:09;;;;;;;;;;;;;;;;;;5071004;28;19989;-62
2023/09/14 12:23:36;;;;;;;;;;;;;;;;;;5079317;28;19913;-63
2023/09/14 12:26:02;;;;;;;;;;;;;;;;;;5073337;28;19963;-61
2023/09/14 12:28:28;;;;;;;;;;;;;;;;;;5071334;28;20403;-62
2023/09/14 12:30:54;;;;;;;;;;;;;;;;;;5086081;28;20007;-62
2023/09/14 12:33:20;;;;;;;;;;;;;;;;;;5072268;28;20015;-62
2023/09/14 12:35:47;;;;;;;;;;;;;;;;;;5075278;28;20364;-63
2023/09/14 12:38:13;;;;;;;;;;;;;;;;;;5087163;28;19977;-61
2023/09/14 12:40:39;;;;;;;;;;;;;;;;;;5085385;28;20419;-62
2023/09/14 12:43:06;;;;;;;;;;;;;;;;;;5076045;28;19913;-62
2023/09/14 12:45:35;;;;;;;;;;;;;;;;;;5075848;28;19912;-63
2023/09/14 12:48:03;;;;;;;;;;;;;;;;;;5071888;28;19916;-62
2023/09/14 12:50:29;;;;;;;;;;;;;;;;;;5076621;28;20364;-62
2023/09/14 12:52:57;;;;;;;;;;;;;;;;;;5072890;28;20218;-63
2023/09/14 12:55:23;;;;;;;;;;;;;;;;;;5090376;28;19919;-62
2023/09/14 12:57:49;;;;;;;;;;;;;;;;;;5084449;28;20433;-63
2023/09/14 13:00:15;;;;;;;;;;;;;;;;;;5080005;28;19912;-62
2023/09/14 13:02:41;;;;;;;;;;;;;;;;;;5078794;28;19923;-63
2023/09/14 13:05:07;;;;;;;;;;;;;;;;;;5078308;28;20272;-63
2023/09/14 13:07:33;;;;;;;;;;;;;;;;;;5076412;28;20474;-63
2023/09/14 13:09:59;;;;;;;;;;;;;;;;;;5079820;28;19959;-62
2023/09/14 13:12:24;;;;;;;;;;;;;;;;;;5078698;28;19956;-63
2023/09/14 13:14:50;;;;;;;;;;;;;;;;;;5082127;28;19913;-62
2023/09/14 13:17:16;;;;;;;;;;;;;;;;;;5075096;28;20047;-63
2023/09/14 13:19:42;;;;;;;;;;;;;;;;;;5082749;28;19916;-62
2023/09/14 13:22:09;;;;;;;;;;;;;;;;;;5071386;28;20493;-62
2023/09/14 13:24:35;;;;;;;;;;;;;;;;;;5080507;28;19919;-62
2023/09/14 13:27:01;;;;;;;;;;;;;;;;;;5083157;28;19923;-62
2023/09/14 13:29:27;;;;;;;;;;;;;;;;;;5079539;28;20011;-62
2023/09/14 13:31:53;;;;;;;;;;;;;;;;;;5079032;28;19998;-63
2023/09/14 13:34:19;;;;;;;;;;;;;;;;;;5084982;28;20009;-62
2023/09/14 13:36:46;;;;;;;;;;;;;;;;;;5074054;28;19955;-63
2023/09/14 13:39:12;;;;;;;;;;;;;;;;;;5072271;28;20368;-61
2023/09/14 13:41:38;;;;;;;;;;;;;;;;;;5082375;28;19916;-63
2023/09/14 13:44:06;;;;;;;;;;;;;;;;;;5085604;28;20294;-63
2023/09/14 13:46:32;;;;;;;;;;;;;;;;;;5071424;28;20332;-62
2023/09/14 13:48:58;;;;;;;;;;;;;;;;;;5080452;28;20000;-62
2023/09/14 13:51:24;;;;;;;;;;;;;;;;;;5075244;28;19916;-62
2023/09/14 13:53:50;;;;;;;;;;;;;;;;;;5081049;28;20359;-63
2023/09/14 13:56:16;;;;;;;;;;;;;;;;;;5072111;28;19939;-63
2023/09/14 13:58:41;;;;;;;;;;;;;;;;;;5077434;28;19912;-63
2023/09/14 14:01:07;;;;;;;;;;;;;;;;;;5071511;28;19975;-63
2023/09/14 14:03:33;;;;;;;;;;;;;;;;;;5070654;28;20003;-63
2023/09/14 14:05:59;;;;;;;;;;;;;;;;;;5074982;28;20452;-61
2023/09/14 14:08:27;;;;;;;;;;;;;;;;;;5070528;28;19916;-62
2023/09/14 14:10:53;;;;;;;;;;;;;;;;;;5079250;28;20647;-63
2023/09/14 14:13:19;;;;;;;;;;;;;;;;;;5070315;28;20399;-62
2023/09/14 14:15:45;;;;;;;;;;;;;;;;;;5071855;28;19954;-60
2023/09/14 14:18:11;;;;;;;;;;;;;;;;;;5074282;28;19980;-63
2023/09/14 14:20:38;;;;;;;;;;;;;;;;;;5081108;28;19959;-60
2023/09/14 14:23:03;;;;;;;;;;;;;;;;;;5072561;28;20372;-59
2023/09/14 14:25:29;;;;;;;;;;;;;;;;;;5078813;28;19951;-57
2023/09/14 14:27:55;;;;;;;;;;;;;;;;;;5089105;28;19970;-57
2023/09/14 14:30:21;;;;;;;;;;;;;;;;;;5084021;28;20110;-58
2023/09/14 14:32:47;;;;;;;;;;;;;;;;;;5087240;28;19916;-58
2023/09/14 14:35:14;;;;;;;;;;;;;;;;;;5081084;28;19916;-59
2023/09/14 14:37:40;;;;;;;;;;;;;;;;;;5092365;28;19916;-58
2023/09/14 14:40:06;;;;;;;;;;;;;;;;;;5079412;28;19951;-58
2023/09/14 14:42:32;;;;;;;;;;;;;;;;;;5091725;28;20002;-58
2023/09/14 14:44:59;;;;;;;;;;;;;;;;;;5085231;28;19918;-57
2023/09/14 14:47:26;;;;;;;;;;;;;;;;;;5081032;28;19991;-58
2023/09/14 14:49:52;;;;;;;;;;;;;;;;;;5081130;28;19943;-57
2023/09/14 14:52:18;;;;;;;;;;;;;;;;;;5087834;28;19934;-57
2023/09/14 14:54:44;;;;;;;;;;;;;;;;;;5084385;28;19969;-59
2023/09/14 14:57:10;;;;;;;;;;;;;;;;;;5089684;28;20415;-57
2023/09/14 14:59:36;;;;;;;;;;;;;;;;;;5083748;28;20006;-58
2023/09/14 15:02:02;;;;;;;;;;;;;;;;;;5078786;28;19962;-57
2023/09/14 15:04:28;;;;;;;;;;;;;;;;;;5085300;28;19912;-57
2023/09/14 15:06:54;;;;;;;;;;;;;;;;;;5078262;28;20388;-59
2023/09/14 15:09:20;;;;;;;;;;;;;;;;;;5089758;28;19918;-58
2023/09/14 15:11:46;;;;;;;;;;;;;;;;;;5081760;28;19920;-59
2023/09/14 15:14:12;;;;;;;;;;;;;;;;;;5086855;28;20001;-59
2023/09/14 15:16:38;;;;;;;;;;;;;;;;;;5088012;28;19935;-57
2023/09/14 15:19:04;;;;;;;;;;;;;;;;;;5083759;28;20410;-58
2023/09/14 15:21:30;;;;;;;;;;;;;;;;;;5081762;28;20015;-57
2023/09/14 15:24:00;;;;;;;;;;;;;;;;;;5071999;28;21818;-57
2023/09/14 15:26:27;;;;;;;;;;;;;;;;;;5085385;28;19919;-57
2023/09/14 15:28:54;;;;;;;;;;;;;;;;;;5080933;28;19917;-57
2023/09/14 15:31:22;;;;;;;;;;;;;;;;;;5081258;28;19959;-60
2023/09/14 15:33:47;;;;;;;;;;;;;;;;;;5082125;28;19924;-60
2023/09/14 15:36:14;;;;;;;;;;;;;;;;;;5082309;28;20374;-60
2023/09/14 15:38:41;;;;;;;;;;;;;;;;;;5078843;28;20363;-62
2023/09/14 15:41:07;;;;;;;;;;;;;;;;;;5081812;28;19919;-62
2023/09/14 15:43:33;;;;;;;;;;;;;;;;;;5075645;28;19928;-62
2023/09/14 15:45:59;;;;;;;;;;;;;;;;;;5073869;28;20948;-62
2023/09/14 15:48:26;;;;;;;;;;;;;;;;;;5082822;28;19916;-61
2023/09/14 15:50:52;;;;;;;;;;;;;;;;;;5087410;28;19919;-62
2023/09/14 15:53:19;;;;;;;;;;;;;;;;;;5091319;28;19970;-62
2023/09/14 15:55:45;;;;;;;;;;;;;;;;;;5091859;28;20425;-62
2023/09/14 15:58:11;;;;;;;;;;;;;;;;;;5078309;28;20011;-63
2023/09/14 16:00:37;;;;;;;;;;;;;;;;;;5087548;28;19916;-61
2023/09/14 16:03:03;;;;;;;;;;;;;;;;;;5080452;28;20422;-62
2023/09/14 16:05:29;;;;;;;;;;;;;;;;;;5078490;28;19948;-61
2023/09/14 16:07:55;;;;;;;;;;;;;;;;;;5089808;28;19958;-62
2023/09/14 16:10:21;;;;;;;;;;;;;;;;;;5074889;28;19919;-62
2023/09/14 16:12:47;;;;;;;;;;;;;;;;;;5084834;28;19916;-61
2023/09/14 16:15:12;;;;;;;;;;;;;;;;;;5076904;28;19951;-61
2023/09/14 16:17:38;;;;;;;;;;;;;;;;;;5082865;28;19944;-61
2023/09/14 16:20:04;;;;;;;;;;;;;;;;;;5079111;28;20036;-61
2023/09/14 16:22:30;;;;;;;;;;;;;;;;;;5088206;28;20058;-62
2023/09/14 16:24:56;;;;;;;;;;;;;;;;;;5080327;28;19924;-61
2023/09/14 16:27:22;;;;;;;;;;;;;;;;;;5080849;28;19909;-61
2023/09/14 16:29:48;;;;;;;;;;;;;;;;;;5080897;28;19919;-61
2023/09/14 16:32:14;;;;;;;;;;;;;;;;;;5078185;28;19912;-61
2023/09/14 16:34:40;;;;;;;;;;;;;;;;;;5088140;28;20291;-61
2023/09/14 16:37:06;;;;;;;;;;;;;;;;;;5076795;28;20003;-61